createdAt,value
2023-03-05T00:00:27.444Z,37.77
2023-03-05T00:03:16.382Z,29.10
2023-03-05T00:06:07.659Z,32.00
2023-03-05T00:08:58.689Z,30.77
2023-03-05T00:11:47.629Z,30.77
2023-03-05T00:14:36.247Z,29.70
2023-03-05T00:17:25.160Z,31.00
2023-03-05T00:20:14.493Z,29.33
2023-03-05T00:23:04.976Z,33.30
2023-03-05T00:25:53.891Z,30.70
2023-03-05T00:28:43.102Z,29.67
2023-03-05T00:31:34.187Z,31.80
2023-03-05T00:34:23.692Z,30.13
2023-03-05T00:37:12.956Z,29.97
2023-03-05T00:40:05.829Z,27.63
2023-03-05T00:42:54.982Z,27.90
2023-03-05T00:45:43.803Z,37.20
2023-03-05T00:48:33.068Z,39.53
2023-03-05T00:51:22.875Z,39.83
2023-03-05T00:54:12.546Z,28.00
2023-03-05T00:57:03.072Z,36.10
2023-03-05T00:59:52.326Z,29.73
2023-03-05T01:02:41.527Z,31.17
2023-03-05T01:05:30.810Z,35.83
2023-03-05T01:08:20.244Z,36.97
2023-03-05T01:11:09.903Z,30.20
2023-03-05T01:14:00.696Z,34.83
2023-03-05T01:16:50.797Z,35.23
2023-03-05T01:19:40.072Z,30.37
2023-03-05T01:22:29.046Z,31.60
2023-03-05T01:25:19.019Z,33.67
2023-03-05T01:28:08.286Z,34.13
2023-03-05T01:30:58.686Z,30.30
2023-03-05T01:33:47.528Z,36.13
2023-03-05T01:36:36.196Z,33.10
2023-03-05T01:39:25.150Z,31.40
2023-03-05T01:42:14.072Z,30.30
2023-03-05T01:45:07.229Z,32.20
2023-03-05T01:47:57.886Z,31.27
2023-03-05T01:50:47.301Z,31.50
2023-03-05T01:53:36.321Z,33.77
2023-03-05T01:56:25.647Z,34.70
2023-03-05T01:59:15.475Z,39.67
2023-03-05T02:02:06.278Z,34.40
2023-03-05T02:04:59.103Z,31.87
2023-03-05T02:07:48.506Z,33.70
2023-03-05T02:10:39.620Z,32.33
2023-03-05T02:13:30.077Z,34.63
2023-03-05T02:16:19.506Z,33.13
2023-03-05T02:19:11.543Z,33.83
2023-03-05T02:22:01.925Z,34.97
2023-03-05T02:24:51.290Z,35.03
2023-03-05T02:27:42.409Z,33.60
2023-03-05T02:30:31.574Z,40.83
2023-03-05T02:33:21.762Z,32.13
2023-03-05T02:36:12.269Z,30.53
2023-03-05T02:39:03.071Z,30.47
2023-03-05T02:41:52.033Z,33.33
2023-03-05T02:44:41.299Z,32.73
2023-03-05T02:47:30.628Z,33.20
2023-03-05T02:50:19.930Z,34.50
2023-03-05T02:53:09.541Z,32.93
2023-03-05T02:56:01.156Z,34.00
2023-03-05T02:58:51.117Z,29.70
2023-03-05T03:01:40.252Z,31.70
2023-03-05T03:04:29.370Z,36.40
2023-03-05T03:07:18.529Z,35.53
2023-03-05T03:10:08.618Z,32.63
2023-03-05T03:12:59.084Z,33.70
2023-03-05T03:15:48.085Z,33.70
2023-03-05T03:18:37.088Z,40.30
2023-03-05T03:21:27.120Z,33.73
2023-03-05T03:24:16.099Z,34.20
2023-03-05T03:27:05.336Z,37.43
2023-03-05T03:29:55.716Z,32.73
2023-03-05T03:32:45.032Z,32.73
2023-03-05T03:35:34.121Z,32.17
2023-03-05T03:38:26.100Z,35.63
2023-03-05T03:41:14.971Z,31.80
2023-03-05T03:44:05.084Z,33.03
2023-03-05T03:46:55.560Z,32.47
2023-03-05T03:49:44.578Z,32.70
2023-03-05T03:52:33.648Z,34.87
2023-03-05T03:55:22.811Z,28.23
2023-03-05T03:58:12.558Z,36.30
2023-03-05T04:01:01.626Z,30.33
2023-03-05T04:03:52.398Z,29.77
2023-03-05T04:06:42.164Z,32.30
2023-03-05T04:09:31.484Z,35.47
2023-03-05T04:12:21.158Z,33.17
2023-03-05T04:15:11.712Z,34.67
2023-03-05T04:18:01.392Z,35.63
2023-03-05T04:20:52.321Z,40.13
2023-03-05T04:23:44.996Z,31.20
2023-03-05T04:26:34.270Z,32.97
2023-03-05T04:29:23.532Z,36.17
2023-03-05T04:32:12.581Z,32.67
2023-03-05T04:35:02.171Z,37.17
2023-03-05T04:37:55.177Z,31.70
2023-03-05T04:40:54.838Z,32.30
2023-03-05T04:43:43.907Z,31.77
2023-03-05T04:46:33.112Z,31.20
2023-03-05T04:49:22.444Z,32.23
2023-03-05T04:52:12.566Z,31.73
2023-03-05T04:55:03.726Z,33.00
2023-03-05T04:57:53.273Z,34.00
2023-03-05T05:00:42.900Z,30.37
2023-03-05T05:03:32.316Z,36.57
2023-03-05T05:06:23.271Z,34.40
2023-03-05T05:09:12.657Z,31.70
2023-03-05T05:12:03.466Z,32.00
2023-03-05T05:14:52.819Z,42.40
2023-03-05T05:17:42.244Z,31.87
2023-03-05T05:20:31.791Z,31.37
2023-03-05T05:23:20.949Z,36.50
2023-03-05T05:26:14.456Z,32.17
2023-03-05T05:29:05.325Z,32.03
2023-03-05T05:31:54.333Z,30.43
2023-03-05T05:34:43.558Z,32.90
2023-03-05T05:37:32.678Z,35.17
2023-03-05T05:40:21.896Z,33.67
2023-03-05T05:43:11.164Z,31.97
2023-03-05T05:46:02.893Z,31.53
2023-03-05T05:48:52.974Z,35.20
2023-03-05T05:51:42.238Z,31.37
2023-03-05T05:54:34.474Z,35.90
2023-03-05T05:57:25.224Z,44.00
2023-03-05T06:00:16.290Z,29.90
2023-03-05T06:03:07.959Z,32.00
2023-03-05T06:05:57.203Z,34.07
2023-03-05T06:08:46.787Z,29.40
2023-03-05T06:11:35.959Z,34.77
2023-03-05T06:14:25.007Z,33.00
2023-03-05T06:17:21.868Z,30.73
2023-03-05T06:20:16.101Z,31.00
2023-03-05T06:23:07.438Z,41.27
2023-03-05T06:25:59.604Z,32.30
2023-03-05T06:28:52.775Z,37.40
2023-03-05T06:31:41.961Z,36.10
2023-03-05T06:34:34.101Z,32.70
2023-03-05T06:37:25.179Z,31.40
2023-03-05T06:40:15.529Z,31.77
2023-03-05T06:43:05.047Z,31.83
2023-03-05T06:46:03.601Z,32.93
2023-03-05T06:48:53.778Z,31.67
2023-03-05T06:51:44.438Z,32.23
2023-03-05T06:54:35.322Z,34.27
2023-03-05T06:57:24.578Z,32.80
2023-03-05T07:00:15.253Z,32.70
2023-03-05T07:03:04.579Z,36.83
2023-03-05T07:05:53.644Z,29.47
2023-03-05T07:08:43.836Z,39.17
2023-03-05T07:11:37.408Z,41.00
2023-03-05T07:14:26.961Z,29.47
2023-03-05T07:17:16.558Z,35.57
2023-03-05T07:20:06.533Z,30.90
2023-03-05T07:22:55.407Z,32.57
2023-03-05T07:25:44.576Z,37.70
2023-03-05T07:28:35.482Z,33.10
2023-03-05T07:31:27.540Z,31.03
2023-03-05T07:34:16.998Z,37.67
2023-03-05T07:37:06.508Z,35.93
2023-03-05T07:39:55.634Z,31.30
2023-03-05T07:42:44.624Z,33.10
2023-03-05T07:45:46.312Z,28.93
2023-03-05T07:48:35.832Z,37.57
2023-03-05T07:51:28.824Z,31.50
2023-03-05T07:54:18.059Z,30.70
2023-03-05T07:57:07.796Z,31.03
2023-03-05T07:59:57.055Z,32.70
2023-03-05T08:02:48.298Z,29.37
2023-03-05T08:05:40.872Z,34.37
2023-03-05T08:08:30.103Z,29.97
2023-03-05T08:11:19.266Z,30.23
2023-03-05T08:14:08.371Z,31.27
2023-03-05T08:16:57.643Z,37.27
2023-03-05T08:19:48.344Z,30.20
2023-03-05T08:22:37.920Z,36.50
2023-03-05T08:25:28.526Z,29.97
2023-03-05T08:28:19.739Z,34.67
2023-03-05T08:31:11.172Z,36.77
2023-03-05T08:34:01.466Z,31.83
2023-03-05T08:36:55.057Z,33.80
2023-03-05T08:39:47.471Z,30.43
2023-03-05T08:42:36.689Z,38.27
2023-03-05T08:45:26.005Z,29.60
2023-03-05T08:48:15.480Z,43.47
2023-03-05T08:51:09.466Z,30.30
2023-03-05T08:54:01.898Z,31.27
2023-03-05T08:56:51.216Z,29.17
2023-03-05T08:59:40.550Z,36.27
2023-03-05T09:02:30.469Z,31.33
2023-03-05T09:05:20.135Z,28.93
2023-03-05T09:08:13.023Z,32.57
2023-03-05T09:11:05.935Z,31.53
2023-03-05T09:13:55.496Z,34.03
2023-03-05T09:16:44.991Z,28.70
2023-03-05T09:19:34.347Z,33.53
2023-03-05T09:22:23.699Z,29.60
2023-03-05T09:25:13.859Z,37.03
2023-03-05T09:28:04.611Z,32.10
2023-03-05T09:30:54.038Z,33.27
2023-03-05T09:33:43.197Z,31.80
2023-03-05T09:36:33.202Z,32.20
2023-03-05T09:39:22.505Z,29.20
2023-03-05T09:42:30.105Z,38.50
2023-03-05T09:45:24.789Z,34.10
2023-03-05T09:48:18.993Z,39.20
2023-03-05T09:51:14.401Z,30.63
2023-03-05T09:54:06.477Z,30.70
2023-03-05T09:56:58.146Z,30.93
2023-03-05T09:59:50.262Z,33.70
2023-03-05T10:02:44.958Z,28.67
2023-03-05T10:05:47.169Z,31.13
2023-03-05T10:08:47.819Z,29.80
2023-03-05T10:11:44.661Z,30.93
2023-03-05T10:14:36.153Z,31.17
2023-03-05T10:17:49.828Z,31.00
2023-03-05T10:20:46.225Z,29.43
2023-03-05T10:23:53.343Z,27.83
2023-03-05T10:27:00.538Z,26.10
2023-03-05T10:29:58.928Z,31.80
2023-03-05T10:33:07.544Z,30.60
2023-03-05T10:36:26.370Z,27.23
2023-03-05T10:39:41.069Z,26.87
2023-03-05T10:42:35.180Z,27.83
2023-03-05T10:45:26.061Z,28.13
2023-03-05T10:48:27.370Z,27.83
2023-03-05T10:51:19.462Z,31.60
2023-03-05T10:54:15.813Z,27.50
2023-03-05T10:57:07.062Z,27.13
2023-03-05T11:00:00.506Z,21.50
2023-03-05T11:02:58.997Z,28.30
2023-03-05T11:05:51.482Z,23.73
2023-03-05T11:08:41.316Z,26.00
2023-03-05T11:11:31.549Z,24.00
2023-03-05T11:14:30.992Z,23.73
2023-03-05T11:17:30.027Z,25.53
2023-03-05T11:20:32.968Z,29.17
2023-03-05T11:23:24.897Z,30.80
2023-03-05T11:26:21.334Z,28.60
2023-03-05T11:29:19.306Z,28.23
2023-03-05T11:32:17.702Z,23.67
2023-03-05T11:35:28.081Z,22.47
2023-03-05T11:38:19.363Z,27.77
2023-03-05T11:41:11.312Z,29.20
2023-03-05T11:44:03.958Z,23.53
2023-03-05T11:46:55.584Z,23.53
2023-03-05T11:49:47.209Z,24.83
2023-03-05T11:52:42.533Z,29.07
2023-03-05T11:55:35.990Z,27.43
2023-03-05T11:58:33.247Z,27.60
2023-03-05T12:01:24.362Z,25.13
2023-03-05T12:04:13.765Z,28.43
2023-03-05T12:07:06.688Z,30.83
2023-03-05T12:09:55.819Z,24.03
2023-03-05T12:12:49.307Z,24.70
2023-03-05T12:15:56.863Z,25.80
2023-03-05T12:18:53.418Z,28.43
2023-03-05T12:21:43.815Z,35.57
2023-03-05T12:24:39.438Z,27.77
2023-03-05T12:27:36.926Z,25.93
2023-03-05T12:30:58.181Z,23.80
2023-03-05T12:33:47.187Z,28.63
2023-03-05T12:36:39.830Z,25.07
2023-03-05T12:39:52.990Z,28.50
2023-03-05T12:43:03.730Z,23.47
2023-03-05T12:45:53.318Z,23.93
2023-03-05T12:48:46.776Z,29.13
2023-03-05T12:51:37.831Z,23.70
2023-03-05T12:54:31.602Z,24.90
2023-03-05T12:57:21.801Z,24.10
2023-03-05T13:00:13.403Z,24.03
2023-03-05T13:03:04.129Z,21.83
2023-03-05T13:05:56.347Z,21.23
2023-03-05T13:08:45.180Z,21.97
2023-03-05T13:11:36.337Z,20.97
2023-03-05T13:14:30.731Z,21.73
2023-03-05T13:17:33.613Z,20.60
2023-03-05T13:20:35.172Z,20.50
2023-03-05T13:23:26.895Z,22.13
2023-03-05T13:26:19.032Z,18.37
2023-03-05T13:29:10.634Z,19.00
2023-03-05T13:32:02.048Z,25.87
2023-03-05T13:34:58.626Z,25.80
2023-03-05T13:37:48.195Z,24.43
2023-03-05T13:40:41.037Z,22.10
2023-03-05T13:43:30.115Z,18.50
2023-03-05T13:46:30.863Z,26.20
2023-03-05T13:49:23.714Z,20.00
2023-03-05T13:52:15.886Z,19.37
2023-03-05T13:55:12.175Z,21.50
2023-03-05T13:58:02.517Z,21.30
2023-03-05T14:01:04.482Z,23.73
2023-03-05T14:03:56.227Z,20.00
2023-03-05T14:06:50.332Z,22.50
2023-03-05T14:09:48.537Z,20.23
2023-03-05T14:12:40.975Z,22.33
2023-03-05T14:15:33.419Z,20.83
2023-03-05T14:18:22.696Z,20.97
2023-03-05T14:21:12.588Z,25.53
2023-03-05T14:24:13.621Z,31.67
2023-03-05T14:27:05.793Z,19.50
2023-03-05T14:29:55.450Z,22.53
2023-03-05T14:32:46.445Z,18.70
2023-03-05T14:35:36.647Z,20.80
2023-03-05T14:38:27.963Z,20.30
2023-03-05T14:41:22.027Z,19.23
2023-03-05T14:44:14.275Z,22.60
2023-03-05T14:47:03.251Z,23.63
2023-03-05T14:49:54.051Z,20.80
2023-03-05T14:52:42.971Z,19.97
2023-03-05T14:55:33.582Z,20.03
2023-03-05T14:58:26.099Z,19.53
2023-03-05T15:01:15.468Z,19.63
2023-03-05T15:04:04.876Z,20.00
2023-03-05T15:06:55.199Z,22.30
2023-03-05T15:09:44.261Z,19.03
2023-03-05T15:12:33.626Z,20.73
2023-03-05T15:15:23.472Z,18.90
2023-03-05T15:18:14.330Z,20.10
2023-03-05T15:21:06.973Z,20.87
2023-03-05T15:23:57.674Z,21.90
2023-03-05T15:26:47.760Z,19.00
2023-03-05T15:29:38.237Z,19.43
2023-03-05T15:32:28.223Z,22.37
2023-03-05T15:35:17.502Z,20.37
2023-03-05T15:38:07.093Z,22.47
2023-03-05T15:40:59.909Z,18.50
2023-03-05T15:43:50.750Z,19.40
2023-03-05T15:46:40.010Z,19.93
2023-03-05T15:49:29.188Z,21.60
2023-03-05T15:52:18.457Z,20.57
2023-03-05T15:55:08.688Z,20.70
2023-03-05T15:57:59.252Z,19.63
2023-03-05T16:00:49.289Z,19.50
2023-03-05T16:03:38.501Z,19.70
2023-03-05T16:06:28.138Z,21.90
2023-03-05T16:09:17.806Z,21.10
2023-03-05T16:12:11.273Z,20.70
2023-03-05T16:15:01.952Z,20.70
2023-03-05T16:17:53.982Z,19.63
2023-03-05T16:20:42.976Z,22.67
2023-03-05T16:23:32.106Z,19.40
2023-03-05T16:26:21.198Z,20.30
2023-03-05T16:29:10.441Z,21.43
2023-03-05T16:32:02.474Z,22.63
2023-03-05T16:34:51.949Z,24.13
2023-03-05T16:37:41.663Z,21.10
2023-03-05T16:40:56.487Z,20.60
2023-03-05T16:43:41.375Z,25.00
2023-03-05T16:46:34.026Z,20.63
2023-03-05T16:49:25.639Z,26.00
2023-03-05T16:52:19.143Z,24.67
2023-03-05T16:55:09.653Z,23.07
2023-03-05T16:57:58.859Z,23.77
2023-03-05T17:00:49.137Z,21.93
2023-03-05T17:03:41.836Z,21.80
2023-03-05T17:06:35.114Z,38.83
2023-03-05T17:09:24.972Z,21.00
2023-03-05T17:12:14.030Z,22.70
2023-03-05T17:15:03.760Z,21.10
2023-03-05T17:17:52.978Z,27.23
2023-03-05T17:20:42.357Z,21.53
2023-03-05T17:23:33.259Z,22.63
2023-03-05T17:26:22.529Z,23.43
2023-03-05T17:29:12.048Z,23.40
2023-03-05T17:32:01.334Z,22.47
2023-03-05T17:34:54.633Z,21.83
2023-03-05T17:37:44.112Z,22.40
2023-03-05T17:40:35.224Z,21.13
2023-03-05T17:43:24.701Z,21.90
2023-03-05T17:46:13.980Z,24.70
2023-03-05T17:49:03.192Z,24.27
2023-03-05T17:51:52.712Z,23.70
2023-03-05T17:54:42.222Z,22.43
2023-03-05T17:57:32.750Z,29.47
2023-03-05T18:00:24.811Z,25.30
2023-03-05T18:03:15.264Z,23.13
2023-03-05T18:06:05.206Z,24.53
2023-03-05T18:08:54.582Z,24.30
2023-03-05T18:11:44.157Z,25.60
2023-03-05T18:14:34.757Z,26.40
2023-03-05T18:17:24.520Z,25.83
2023-03-05T18:20:26.152Z,23.27
2023-03-05T18:23:15.633Z,24.40
2023-03-05T18:26:05.051Z,25.20
2023-03-05T18:28:54.375Z,24.23
2023-03-05T18:31:45.314Z,22.50
2023-03-05T18:34:35.059Z,27.73
2023-03-05T18:37:24.271Z,27.10
2023-03-05T18:40:17.485Z,26.33
2023-03-05T18:43:08.162Z,27.60
2023-03-05T18:45:58.535Z,25.10
2023-03-05T18:48:49.191Z,26.37
2023-03-05T18:51:38.712Z,27.20
2023-03-05T18:54:27.978Z,23.33
2023-03-05T18:57:20.321Z,23.70
2023-03-05T19:00:11.846Z,23.73
2023-03-05T19:03:02.687Z,26.60
2023-03-05T19:05:53.352Z,24.93
2023-03-05T19:08:42.673Z,23.00
2023-03-05T19:11:31.895Z,25.50
2023-03-05T19:14:20.955Z,23.77
2023-03-05T19:17:10.537Z,24.63
2023-03-05T19:20:00.607Z,24.37
2023-03-05T19:22:51.328Z,26.10
2023-03-05T19:25:42.365Z,26.73
2023-03-05T19:28:31.515Z,28.77
2023-03-05T19:31:20.707Z,31.20
2023-03-05T19:34:10.305Z,32.83
2023-03-05T19:36:59.733Z,28.33
2023-03-05T19:39:50.205Z,26.33
2023-03-05T19:42:39.699Z,25.30
2023-03-05T19:45:28.896Z,33.00
2023-03-05T19:48:18.133Z,31.33
2023-03-05T19:51:10.149Z,27.00
2023-03-05T19:54:03.605Z,28.40
2023-03-05T19:56:55.935Z,27.03
2023-03-05T19:59:46.986Z,23.73
2023-03-05T20:02:40.556Z,28.80
2023-03-05T20:05:55.174Z,27.40
2023-03-05T20:08:45.005Z,26.57
2023-03-05T20:11:34.375Z,28.37
2023-03-05T20:14:25.182Z,25.30
2023-03-05T20:17:14.471Z,23.73
2023-03-05T20:20:03.677Z,26.50
2023-03-05T20:22:53.035Z,25.10
2023-03-05T20:25:42.136Z,26.90
2023-03-05T20:28:31.534Z,27.07
2023-03-05T20:31:24.106Z,34.40
2023-03-05T20:34:17.617Z,29.93
2023-03-05T20:37:07.704Z,27.77
2023-03-05T20:39:57.110Z,35.13
2023-03-05T20:42:46.152Z,28.77
2023-03-05T20:45:36.885Z,26.63
2023-03-05T20:48:28.941Z,25.33
2023-03-05T20:51:22.848Z,25.53
2023-03-05T20:54:14.524Z,29.90
2023-03-05T20:57:03.458Z,27.30
2023-03-05T20:59:52.944Z,26.70
2023-03-05T21:02:42.419Z,28.83
2023-03-05T21:05:33.445Z,29.13
2023-03-05T21:08:22.714Z,26.00
2023-03-05T21:11:13.473Z,26.03
2023-03-05T21:14:03.118Z,30.90
2023-03-05T21:16:52.267Z,31.20
2023-03-05T21:19:41.637Z,25.23
2023-03-05T21:22:32.522Z,32.10
2023-03-05T21:25:22.228Z,27.30
2023-03-05T21:28:15.404Z,25.30
2023-03-05T21:31:09.671Z,28.80
2023-03-05T21:33:58.775Z,29.50
2023-03-05T21:36:48.056Z,26.17
2023-03-05T21:39:40.145Z,31.43
2023-03-05T21:42:29.310Z,27.00
2023-03-05T21:45:21.036Z,26.33
2023-03-05T21:48:10.918Z,24.53
2023-03-05T21:51:08.082Z,29.20
2023-03-05T21:53:57.242Z,28.87
2023-03-05T21:56:47.636Z,26.93
2023-03-05T21:59:36.941Z,26.10
2023-03-05T22:02:26.480Z,28.07
2023-03-05T22:05:15.737Z,28.20
2023-03-05T22:08:05.218Z,26.33
2023-03-05T22:10:54.684Z,27.73
2023-03-05T22:13:45.623Z,28.10
2023-03-05T22:16:34.977Z,25.10
2023-03-05T22:19:27.626Z,27.53
2023-03-05T22:22:16.876Z,27.30
2023-03-05T22:25:06.879Z,31.03
2023-03-05T22:27:56.564Z,30.37
2023-03-05T22:30:47.390Z,25.97
2023-03-05T22:33:36.656Z,27.53
2023-03-05T22:36:26.119Z,26.00
2023-03-05T22:39:15.445Z,26.93
2023-03-05T22:42:05.159Z,25.50
2023-03-05T22:44:57.555Z,26.70
2023-03-05T22:47:50.357Z,24.70
2023-03-05T22:50:39.623Z,25.70
2023-03-05T22:53:29.098Z,29.63
2023-03-05T22:56:20.275Z,26.40
2023-03-05T22:59:09.762Z,25.60
2023-03-05T23:01:58.883Z,26.60
2023-03-05T23:04:50.330Z,25.70
2023-03-05T23:07:43.154Z,30.30
2023-03-05T23:10:32.814Z,26.40
2023-03-05T23:13:22.235Z,25.73
2023-03-05T23:16:11.542Z,26.67
2023-03-05T23:19:00.629Z,31.27
2023-03-05T23:21:51.310Z,27.33
2023-03-05T23:24:41.470Z,30.60
2023-03-05T23:27:31.304Z,25.87
2023-03-05T23:30:21.219Z,27.87
2023-03-05T23:33:15.687Z,25.60
2023-03-05T23:36:05.054Z,26.87
2023-03-05T23:38:58.126Z,29.30
2023-03-05T23:41:47.328Z,26.70
2023-03-05T23:44:36.997Z,25.70
2023-03-05T23:47:26.629Z,27.77
2023-03-05T23:50:18.205Z,28.53
2023-03-05T23:53:08.344Z,26.77
2023-03-05T23:55:59.052Z,26.40
2023-03-05T23:58:48.493Z,29.87
